Time;durP1;ratioP1;P1;durP2;ratioP2;P2;SDS_P1;SDS_P2;PMS_P1;PMS_P2;Temp;Humidity;BMP_temperature;BMP_pressure;BME280_temperature;BME280_humidity;BME280_pressure;Samples;Min_cycle;Max_cycle;Signal;HPM_P1;HPM_P2
2021/07/19 00:02:13;;;;;;;13.67;12.57;;;17.80;99.90;;;;;;4998934;28;20244;-80
2021/07/19 00:04:43;;;;;;;13.10;11.90;;;17.80;99.90;;;;;;5004512;28;20201;-79
2021/07/19 00:07:10;;;;;;;13.23;12.07;;;17.70;99.90;;;;;;5002991;28;20213;-80
2021/07/19 00:09:37;;;;;;;13.63;12.53;;;17.70;99.90;;;;;;4998672;28;20197;-80
2021/07/19 00:12:06;;;;;;;13.97;12.87;;;17.70;99.90;;;;;;5000770;28;20202;-80
2021/07/19 00:14:34;;;;;;;13.80;12.70;;;17.70;99.90;;;;;;5000920;28;20193;-80
2021/07/19 00:17:02;;;;;;;13.10;12.10;;;17.60;99.90;;;;;;5005204;28;20209;-79
2021/07/19 00:19:29;;;;;;;12.67;11.70;;;17.70;99.90;;;;;;5000765;28;20239;-80
2021/07/19 00:21:57;;;;;;;12.43;11.43;;;17.60;99.90;;;;;;4997726;28;20294;-80
2021/07/19 00:24:24;;;;;;;13.53;12.43;;;17.60;99.90;;;;;;5002578;28;20255;-80
2021/07/19 00:26:51;;;;;;;13.77;12.57;;;17.50;99.90;;;;;;4998015;28;20229;-80
2021/07/19 00:29:18;;;;;;;12.60;11.70;;;17.50;99.90;;;;;;5000529;28;20244;-80
2021/07/19 00:31:45;;;;;;;12.73;11.73;;;17.50;99.90;;;;;;5001810;28;20204;-79
2021/07/19 00:34:13;;;;;;;12.77;11.67;;;17.40;99.90;;;;;;5000463;28;20218;-80
2021/07/19 00:36:40;;;;;;;11.93;11.03;;;17.40;99.90;;;;;;5001530;28;20568;-79
2021/07/19 00:39:08;;;;;;;12.57;11.50;;;17.40;99.90;;;;;;5001743;28;20268;-80
2021/07/19 00:41:38;;;;;;;10.87;9.97;;;17.30;99.90;;;;;;5003220;28;20201;-79
2021/07/19 00:44:06;;;;;;;10.53;9.63;;;17.30;99.90;;;;;;4998868;28;20195;-80
2021/07/19 00:46:33;;;;;;;10.37;9.40;;;17.30;99.90;;;;;;4996045;28;20578;-80
2021/07/19 00:49:00;;;;;;;10.43;9.63;;;17.30;99.90;;;;;;5002949;28;20212;-80
2021/07/19 00:51:29;;;;;;;10.33;9.43;;;17.20;99.90;;;;;;5000274;28;20285;-79
2021/07/19 00:53:56;;;;;;;9.70;8.90;;;17.20;99.90;;;;;;5002705;28;20257;-80
2021/07/19 00:56:25;;;;;;;9.53;8.63;;;17.10;99.90;;;;;;5003268;28;20657;-80
2021/07/19 00:58:52;;;;;;;9.83;8.93;;;17.00;99.90;;;;;;4996884;28;20216;-80
2021/07/19 01:01:22;;;;;;;9.33;8.27;;;17.00;99.90;;;;;;4997826;28;20197;-80
2021/07/19 01:03:50;;;;;;;11.90;11.00;;;17.00;99.90;;;;;;5000156;28;20563;-80
2021/07/19 01:06:19;;;;;;;10.50;9.60;;;17.00;99.90;;;;;;4999786;28;20220;-79
2021/07/19 01:08:49;;;;;;;10.13;7.60;;;16.90;99.90;;;;;;5002752;28;20211;-80
2021/07/19 01:11:19;;;;;;;9.10;8.30;;;16.90;99.90;;;;;;5000304;28;20200;-80
2021/07/19 01:13:47;;;;;;;8.53;7.67;;;16.90;99.90;;;;;;5003226;28;20212;-80
2021/07/19 01:16:15;;;;;;;8.57;7.87;;;16.80;99.90;;;;;;5000839;28;20210;-79
2021/07/19 01:18:44;;;;;;;9.43;8.73;;;16.80;99.90;;;;;;4995691;28;20706;-80
2021/07/19 01:21:43;;;;;;;9.90;9.10;;;16.80;99.90;;;;;;4998054;28;20191;-79
2021/07/19 01:24:39;;;;;;;10.33;9.50;;;16.70;99.90;;;;;;4994274;28;20190;-79
2021/07/19 01:27:29;;;;;;;9.67;8.77;;;16.70;99.90;;;;;;4992433;28;20226;-79
2021/07/19 01:30:01;;;;;;;10.00;9.10;;;16.70;99.90;;;;;;4990949;28;20196;-79
2021/07/19 01:32:30;;;;;;;10.60;9.80;;;16.70;99.90;;;;;;4996609;28;20197;-80
2021/07/19 01:35:00;;;;;;;11.30;10.10;;;16.60;99.90;;;;;;4991673;28;20219;-80
2021/07/19 01:37:29;;;;;;;11.70;10.63;;;16.60;99.90;;;;;;4999427;28;20209;-80
2021/07/19 01:40:06;;;;;;;12.33;11.30;;;16.60;99.90;;;;;;4996264;28;20550;-79
2021/07/19 01:42:34;;;;;;;12.63;11.43;;;16.60;99.90;;;;;;5009081;28;20188;-80
2021/07/19 01:45:05;;;;;;;11.80;10.90;;;16.60;99.90;;;;;;4999418;28;20295;-80
2021/07/19 01:47:33;;;;;;;12.17;11.17;;;16.60;99.90;;;;;;4999196;28;20228;-79
2021/07/19 01:50:01;;;;;;;11.53;10.63;;;16.60;99.90;;;;;;5003369;28;20318;-80
2021/07/19 01:52:32;;;;;;;12.20;11.20;;;16.50;99.90;;;;;;5002552;28;20269;-80
2021/07/19 01:54:59;;;;;;;11.80;10.90;;;16.40;99.90;;;;;;4997192;28;20209;-79
2021/07/19 01:57:28;;;;;;;11.63;10.63;;;16.40;99.90;;;;;;4997434;28;20762;-80
2021/07/19 01:59:59;;;;;;;12.27;11.17;;;16.30;99.90;;;;;;4999458;28;20779;-79
2021/07/19 02:02:42;;;;;;;12.37;11.27;;;16.30;99.90;;;;;;5001277;28;20193;-80
2021/07/19 02:05:15;;;;;;;12.97;11.97;;;16.20;99.90;;;;;;4999635;28;20235;-79
2021/07/19 02:07:54;;;;;;;13.07;11.77;;;16.20;99.90;;;;;;5000953;28;20211;-79
2021/07/19 02:10:23;;;;;;;13.67;12.67;;;16.20;99.90;;;;;;4999229;28;20629;-79
2021/07/19 02:12:56;;;;;;;13.60;12.57;;;16.20;99.90;;;;;;5001546;28;20272;-79
2021/07/19 02:15:27;;;;;;;13.87;12.70;;;16.20;99.90;;;;;;5000051;28;20231;-79
2021/07/19 02:17:59;;;;;;;13.63;12.57;;;16.20;99.90;;;;;;4999061;28;20256;-77
2021/07/19 02:20:29;;;;;;;14.00;12.53;;;16.20;99.90;;;;;;5002415;28;20200;-77
2021/07/19 02:23:01;;;;;;;12.33;11.53;;;16.20;99.90;;;;;;4992972;28;20530;-78
2021/07/19 02:26:02;;;;;;;12.43;11.43;;;16.20;99.90;;;;;;4979226;28;20196;-77
2021/07/19 02:28:30;;;;;;;12.57;11.63;;;16.10;99.90;;;;;;4998345;28;20283;-77
2021/07/19 02:31:01;;;;;;;13.00;12.10;;;16.20;99.90;;;;;;4993885;28;20204;-78
2021/07/19 02:33:32;;;;;;;14.80;13.70;;;16.20;99.90;;;;;;5000723;28;20265;-76
2021/07/19 02:36:00;;;;;;;13.03;12.13;;;16.20;99.90;;;;;;4994759;28;20190;-77
2021/07/19 02:38:33;;;;;;;13.50;12.50;;;16.20;99.90;;;;;;5002078;28;20292;-76
2021/07/19 02:41:23;;;;;;;14.30;13.10;;;16.10;99.90;;;;;;4998617;28;20281;-81
2021/07/19 02:43:54;;;;;;;14.00;13.00;;;16.00;99.90;;;;;;5003877;28;20204;-81
2021/07/19 02:46:26;;;;;;;13.27;12.27;;;16.00;99.90;;;;;;5003554;28;20554;-80
2021/07/19 02:48:56;;;;;;;13.50;12.40;;;16.00;99.90;;;;;;5006831;28;20202;-82
2021/07/19 02:51:26;;;;;;;13.73;12.73;;;15.90;99.90;;;;;;5007852;28;20187;-82
2021/07/19 02:53:56;;;;;;;13.17;12.17;;;15.90;99.90;;;;;;4997699;28;20228;-82
2021/07/19 02:56:24;;;;;;;13.40;12.37;;;15.80;99.90;;;;;;5001297;28;20563;-81
2021/07/19 02:58:52;;;;;;;13.23;12.33;;;15.90;99.90;;;;;;5001765;28;20230;-81
2021/07/19 03:01:22;;;;;;;12.60;11.70;;;15.90;99.90;;;;;;5005145;28;20224;-82
2021/07/19 03:03:50;;;;;;;13.87;12.77;;;15.80;99.90;;;;;;5003866;28;20214;-82
2021/07/19 03:06:24;;;;;;;13.50;12.50;;;15.80;99.90;;;;;;5008810;28;20190;-78
2021/07/19 03:08:54;;;;;;;14.60;13.60;;;15.80;99.90;;;;;;5006818;28;20262;-81
2021/07/19 03:11:42;;;;;;;14.00;12.90;;;15.80;99.90;;;;;;5001533;28;20212;-79
2021/07/19 03:14:16;;;;;;;14.23;13.13;;;15.80;99.90;;;;;;5008080;28;20588;-80
2021/07/19 03:16:45;;;;;;;14.33;13.23;;;15.80;99.90;;;;;;5012273;28;20189;-81
2021/07/19 03:19:15;;;;;;;15.07;13.87;;;15.70;99.90;;;;;;5013339;28;20192;-82
2021/07/19 03:21:45;;;;;;;14.83;13.70;;;15.70;99.90;;;;;;5014480;28;20233;-79
2021/07/19 03:24:24;;;;;;;15.67;14.47;;;15.70;99.90;;;;;;5004967;28;20592;-77
2021/07/19 03:26:55;;;;;;;16.30;15.10;;;15.60;99.90;;;;;;4993913;28;20272;-77
2021/07/19 03:29:23;;;;;;;16.83;15.63;;;15.60;99.90;;;;;;5001858;28;20213;-79
2021/07/19 03:32:18;;;;;;;15.93;14.83;;;15.60;99.90;;;;;;4996284;28;20202;-78
2021/07/19 03:34:45;;;;;;;16.70;15.43;;;15.50;99.90;;;;;;5003739;28;20216;-77
2021/07/19 03:37:15;;;;;;;15.83;14.60;;;15.50;99.90;;;;;;5002008;28;20209;-78
2021/07/19 03:39:45;;;;;;;17.30;16.00;;;15.60;99.90;;;;;;5004289;28;20284;-78
2021/07/19 03:42:20;;;;;;;17.57;15.97;;;15.60;99.90;;;;;;5000184;28;20188;-78
2021/07/19 03:44:57;;;;;;;17.50;16.00;;;15.60;99.90;;;;;;4999850;28;20276;-79
2021/07/19 03:47:28;;;;;;;16.63;15.33;;;15.60;99.90;;;;;;5003379;28;20247;-79
2021/07/19 03:49:57;;;;;;;16.90;15.70;;;15.60;99.90;;;;;;4993811;28;20200;-78
2021/07/19 03:52:28;;;;;;;17.00;15.57;;;15.60;99.90;;;;;;5010280;28;20590;-78
2021/07/19 03:54:56;;;;;;;17.23;15.73;;;15.60;99.90;;;;;;5013202;28;20209;-78
2021/07/19 03:57:27;;;;;;;17.10;15.80;;;15.70;99.90;;;;;;5012986;28;20267;-78
2021/07/19 03:59:56;;;;;;;16.60;15.20;;;15.70;99.90;;;;;;5013291;28;20197;-79
2021/07/19 04:02:30;;;;;;;17.40;15.80;;;15.70;99.90;;;;;;5011570;28;20197;-79
2021/07/19 04:05:04;;;;;;;17.47;15.97;;;15.70;99.90;;;;;;4993681;28;20597;-78
2021/07/19 04:07:38;;;;;;;16.67;14.97;;;15.70;99.90;;;;;;5002837;28;20204;-78
2021/07/19 04:10:07;;;;;;;18.90;17.17;;;15.70;99.90;;;;;;4994504;28;20189;-78
2021/07/19 04:12:36;;;;;;;17.03;15.53;;;15.70;99.90;;;;;;5001873;28;20197;-79
2021/07/19 04:15:03;;;;;;;17.97;16.00;;;15.80;99.90;;;;;;5002555;28;20582;-78
2021/07/19 04:17:31;;;;;;;19.23;17.53;;;15.80;99.90;;;;;;5003127;28;20221;-79
2021/07/19 04:19:59;;;;;;;17.13;15.63;;;15.90;99.90;;;;;;4997441;28;20196;-78
2021/07/19 04:22:28;;;;;;;17.13;15.73;;;15.90;99.90;;;;;;5004427;28;20204;-78
2021/07/19 04:25:11;;;;;;;16.90;15.50;;;16.00;99.90;;;;;;4994792;28;20233;-79
2021/07/19 04:27:42;;;;;;;16.10;14.90;;;16.10;99.90;;;;;;4998700;28;20225;-78
2021/07/19 04:30:10;;;;;;;15.80;14.60;;;16.20;99.90;;;;;;5002588;28;20654;-79
2021/07/19 04:32:52;;;;;;;13.67;12.67;;;16.30;99.90;;;;;;5003111;28;20727;-79
2021/07/19 04:35:21;;;;;;;14.80;13.70;;;16.40;99.90;;;;;;5001709;28;20260;-79
2021/07/19 04:37:52;;;;;;;15.40;13.83;;;16.50;99.90;;;;;;5002404;28;20297;-79
2021/07/19 04:40:24;;;;;;;14.83;13.73;;;16.50;99.90;;;;;;5001170;28;20269;-78
2021/07/19 04:42:51;;;;;;;15.40;14.30;;;16.60;99.90;;;;;;5002579;28;20207;-79
2021/07/19 04:45:20;;;;;;;7.83;6.70;;;16.70;99.90;;;;;;5001367;28;20186;-79
2021/07/19 04:47:47;;;;;;;14.40;13.40;;;16.80;99.90;;;;;;5031323;23;20228;-78
2021/07/19 04:50:14;;;;;;;15.23;14.03;;;16.90;99.90;;;;;;5039173;28;20647;-77
2021/07/19 04:52:57;;;;;;;14.23;13.10;;;17.00;99.90;;;;;;5032018;28;20587;-77
2021/07/19 04:55:26;;;;;;;11.33;10.33;;;17.10;99.90;;;;;;5041818;28;20214;-77
2021/07/19 04:57:56;;;;;;;13.60;12.60;;;17.30;99.90;;;;;;5041427;28;20217;-77
2021/07/19 05:00:23;;;;;;;14.43;13.23;;;17.40;99.90;;;;;;5040696;28;20640;-77
2021/07/19 05:02:52;;;;;;;10.80;9.87;;;17.50;99.90;;;;;;5042320;28;20194;-78
2021/07/19 05:05:22;;;;;;;11.00;9.87;;;17.60;99.90;;;;;;5024466;28;20272;-77
2021/07/19 05:07:52;;;;;;;8.53;6.63;;;17.60;99.90;;;;;;5019117;28;20220;-77
2021/07/19 05:10:20;;;;;;;10.47;9.57;;;17.70;99.90;;;;;;5038181;28;20193;-77
2021/07/19 05:12:51;;;;;;;11.53;10.60;;;17.80;99.90;;;;;;5043184;28;20201;-77
2021/07/19 05:15:19;;;;;;;12.80;11.70;;;17.90;99.90;;;;;;5040838;28;20216;-77
2021/07/19 05:17:46;;;;;;;12.93;12.03;;;17.90;99.90;;;;;;5042919;28;20228;-78
2021/07/19 05:20:14;;;;;;;8.77;7.97;;;18.10;99.90;;;;;;5041780;28;20184;-77
2021/07/19 05:22:46;;;;;;;7.37;6.67;;;18.20;99.90;;;;;;5025954;28;20665;-77
2021/07/19 05:25:14;;;;;;;13.07;12.17;;;18.30;99.90;;;;;;5041178;28;20186;-77
2021/07/19 05:28:03;;;;;;;12.17;11.17;;;18.50;99.90;;;;;;5050654;28;20261;-77
2021/07/19 05:30:31;;;;;;;12.80;11.70;;;18.80;99.90;;;;;;5051182;28;20226;-78
2021/07/19 05:32:58;;;;;;;14.17;13.07;;;18.90;99.90;;;;;;5047370;28;20206;-78
2021/07/19 05:35:25;;;;;;;13.37;12.40;;;19.10;99.90;;;;;;5041331;28;20642;-78
2021/07/19 05:37:52;;;;;;;10.33;9.23;;;19.30;99.90;;;;;;5044940;28;20286;-78
2021/07/19 05:40:19;;;;;;;11.87;10.63;;;19.30;99.90;;;;;;5040668;28;20565;-77
2021/07/19 05:42:46;;;;;;;12.17;11.27;;;19.40;99.90;;;;;;5031329;28;20203;-78
2021/07/19 05:45:16;;;;;;;12.57;11.57;;;19.60;99.90;;;;;;5033034;28;20187;-77
2021/07/19 05:47:43;;;;;;;10.03;9.10;;;19.80;99.90;;;;;;5032500;28;20222;-77
2021/07/19 05:50:11;;;;;;;8.43;7.73;;;20.10;99.90;;;;;;5046497;28;20202;-77
2021/07/19 05:52:38;;;;;;;8.87;7.97;;;20.50;99.90;;;;;;5052564;28;20197;-78
2021/07/19 05:55:07;;;;;;;8.90;8.10;;;21.10;99.90;;;;;;5052861;28;20202;-77
2021/07/19 05:57:34;;;;;;;10.97;10.13;;;21.80;99.90;;;;;;5056416;28;20210;-78
2021/07/19 06:00:01;;;;;;;9.27;8.47;;;22.40;99.90;;;;;;5057254;28;20183;-78
2021/07/19 06:02:30;;;;;;;13.03;11.83;;;23.00;99.90;;;;;;5041243;28;20603;-77
2021/07/19 06:04:57;;;;;;;13.37;12.30;;;23.20;99.90;;;;;;5042881;28;20192;-77
2021/07/19 06:07:24;;;;;;;12.10;11.10;;;23.60;99.90;;;;;;5046178;28;20261;-78
2021/07/19 06:09:50;;;;;;;11.73;10.83;;;23.70;99.90;;;;;;5046447;28;20191;-78
2021/07/19 06:12:17;;;;;;;7.70;6.87;;;23.70;99.90;;;;;;5049631;28;20187;-77
2021/07/19 06:14:44;;;;;;;11.90;10.90;;;23.70;99.90;;;;;;5043486;28;20241;-77
2021/07/19 06:17:12;;;;;;;12.20;11.30;;;24.00;99.90;;;;;;5043935;28;20716;-78
2021/07/19 06:19:40;;;;;;;12.60;11.70;;;24.20;99.90;;;;;;5028796;28;20215;-78
2021/07/19 06:22:09;;;;;;;9.23;8.33;;;24.20;99.90;;;;;;5044030;28;20192;-78
2021/07/19 06:24:36;;;;;;;8.27;7.07;;;24.00;99.90;;;;;;5045844;28;20226;-77
2021/07/19 06:27:03;;;;;;;10.23;9.40;;;23.90;99.90;;;;;;5041453;28;20194;-78
2021/07/19 06:29:30;;;;;;;11.80;11.00;;;24.00;99.90;;;;;;5030515;28;20585;-78
2021/07/19 06:31:57;;;;;;;14.13;13.03;;;24.30;99.90;;;;;;5036549;28;20193;-78
2021/07/19 06:34:24;;;;;;;14.23;13.10;;;24.10;99.90;;;;;;5047762;28;20272;-78
2021/07/19 06:36:52;;;;;;;13.93;12.77;;;23.80;99.90;;;;;;5047076;28;20222;-78
2021/07/19 06:39:19;;;;;;;11.67;10.43;;;24.30;99.90;;;;;;5049079;28;20217;-77
2021/07/19 06:41:46;;;;;;;10.33;9.30;;;24.50;99.90;;;;;;5049849;28;20203;-77
2021/07/19 06:44:13;;;;;;;11.47;10.67;;;24.70;99.90;;;;;;5043759;28;20197;-77
2021/07/19 06:46:40;;;;;;;8.53;7.57;;;24.80;99.90;;;;;;5040495;28;20192;-77
2021/07/19 06:49:07;;;;;;;11.77;10.77;;;24.80;99.90;;;;;;5043897;28;20717;-77
2021/07/19 06:51:33;;;;;;;12.67;11.77;;;25.10;99.90;;;;;;5045430;28;20191;-77
2021/07/19 06:54:02;;;;;;;11.63;10.63;;;25.40;99.90;;;;;;5047519;28;20198;-78
2021/07/19 06:56:31;;;;;;;12.90;11.93;;;25.70;99.90;;;;;;5044647;28;20684;-77
2021/07/19 06:58:58;;;;;;;13.47;12.27;;;25.80;99.90;;;;;;5024171;28;20218;-77
2021/07/19 07:01:25;;;;;;;12.03;11.00;;;26.00;99.90;;;;;;5047393;28;20739;-78
2021/07/19 07:03:52;;;;;;;12.17;11.37;;;26.20;99.90;;;;;;5042634;28;20213;-77
2021/07/19 07:06:18;;;;;;;12.57;11.67;;;26.40;99.90;;;;;;5042837;28;20187;-77
2021/07/19 07:08:45;;;;;;;12.30;11.40;;;26.70;99.90;;;;;;5043164;28;20212;-77
2021/07/19 07:11:14;;;;;;;13.23;11.90;;;26.60;99.90;;;;;;5044791;28;20215;-77
2021/07/19 07:13:41;;;;;;;11.77;10.87;;;26.50;99.90;;;;;;5045872;28;20629;-77
2021/07/19 07:16:09;;;;;;;12.23;11.40;;;26.70;99.90;;;;;;5045847;28;20223;-78
2021/07/19 07:18:36;;;;;;;12.27;11.40;;;26.60;99.90;;;;;;5056083;28;20211;-79
2021/07/19 07:21:03;;;;;;;12.93;11.93;;;26.40;99.90;;;;;;5050502;28;20191;-77
2021/07/19 07:23:29;;;;;;;13.03;11.83;;;26.20;99.90;;;;;;5043658;28;20196;-77
2021/07/19 07:25:56;;;;;;;12.00;11.13;;;26.40;99.90;;;;;;5035582;28;20184;-78
2021/07/19 07:28:24;;;;;;;12.10;11.30;;;26.90;99.90;;;;;;5044532;28;20223;-77
2021/07/19 07:30:51;;;;;;;13.00;12.00;;;27.20;99.90;;;;;;5045919;28;20200;-78
2021/07/19 07:33:18;;;;;;;12.87;11.97;;;27.30;99.90;;;;;;5043824;28;20187;-77
2021/07/19 07:35:46;;;;;;;12.90;11.97;;;27.20;99.90;;;;;;5047777;28;20394;-79
2021/07/19 07:38:13;;;;;;;11.60;10.70;;;27.30;99.90;;;;;;5043717;28;20211;-78
2021/07/19 07:40:40;;;;;;;10.20;9.50;;;27.20;99.90;;;;;;5040753;28;20199;-78
2021/07/19 07:43:07;;;;;;;12.20;11.13;;;27.20;99.90;;;;;;5047213;28;20245;-78
2021/07/19 07:45:35;;;;;;;12.47;11.57;;;27.40;99.90;;;;;;5039215;28;20199;-77
2021/07/19 07:48:02;;;;;;;12.13;11.13;;;27.60;99.90;;;;;;5050177;28;20220;-78
2021/07/19 07:50:30;;;;;;;12.47;11.50;;;27.90;99.90;;;;;;5052230;28;20709;-78
2021/07/19 07:52:57;;;;;;;11.27;10.57;;;27.90;99.90;;;;;;5037005;28;20188;-78
2021/07/19 07:55:24;;;;;;;12.10;11.00;;;27.90;99.90;;;;;;5045621;28;20207;-78
2021/07/19 07:57:51;;;;;;;12.50;11.40;;;27.60;99.90;;;;;;5043829;28;20719;-78
2021/07/19 08:00:19;;;;;;;12.37;11.43;;;27.40;99.90;;;;;;5044559;28;20549;-78
2021/07/19 08:02:48;;;;;;;13.20;11.90;;;27.50;99.90;;;;;;5046721;28;20192;-78
2021/07/19 08:05:15;;;;;;;11.90;11.10;;;27.00;99.90;;;;;;5045870;28;20191;-78
2021/07/19 08:07:42;;;;;;;12.00;11.03;;;27.10;99.90;;;;;;5045228;28;20219;-78
2021/07/19 08:10:10;;;;;;;11.83;11.00;;;27.10;99.90;;;;;;5045368;28;20191;-78
2021/07/19 08:12:37;;;;;;;12.40;11.50;;;27.30;99.90;;;;;;5032145;28;20660;-78
2021/07/19 08:15:06;;;;;;;12.50;11.60;;;27.30;99.90;;;;;;5045370;28;20222;-78
2021/07/19 08:17:33;;;;;;;12.67;11.73;;;27.50;99.90;;;;;;5049030;28;20220;-77
2021/07/19 08:20:01;;;;;;;12.37;11.57;;;27.30;99.90;;;;;;5049476;28;20194;-77
2021/07/19 08:22:31;;;;;;;12.10;11.20;;;27.80;99.90;;;;;;5048400;28;20211;-77
2021/07/19 08:24:58;;;;;;;11.40;10.60;;;28.20;99.90;;;;;;5058051;28;20187;-78
2021/07/19 08:27:25;;;;;;;10.87;10.17;;;28.50;99.90;;;;;;5058222;28;20187;-79
2021/07/19 08:29:52;;;;;;;11.60;10.90;;;28.80;99.90;;;;;;5057619;28;20183;-78
2021/07/19 08:32:20;;;;;;;12.63;11.70;;;28.80;99.90;;;;;;5051669;28;20205;-78
2021/07/19 08:34:48;;;;;;;12.43;11.60;;;29.00;99.90;;;;;;5047959;28;20222;-78
2021/07/19 08:37:17;;;;;;;12.70;11.30;;;28.90;99.90;;;;;;5049828;28;20187;-78
2021/07/19 08:39:45;;;;;;;12.17;11.37;;;28.70;99.90;;;;;;5042457;28;20187;-77
2021/07/19 08:42:12;;;;;;;12.10;11.27;;;28.40;99.90;;;;;;5045218;28;20192;-77
2021/07/19 08:44:39;;;;;;;11.63;10.83;;;28.20;99.90;;;;;;5045625;28;20198;-77
2021/07/19 08:47:08;;;;;;;12.40;11.40;;;28.50;99.90;;;;;;5046454;28;20202;-77
2021/07/19 08:49:35;;;;;;;11.77;10.97;;;28.80;99.90;;;;;;5046514;28;20268;-78
2021/07/19 08:52:02;;;;;;;12.17;11.27;;;28.70;99.90;;;;;;5045266;28;20196;-78
2021/07/19 08:54:33;;;;;;;12.57;11.60;;;28.80;99.90;;;;;;5054466;28;20620;-78
2021/07/19 08:57:01;;;;;;;12.23;11.37;;;29.10;99.90;;;;;;5058188;28;20238;-78
2021/07/19 08:59:28;;;;;;;12.87;11.87;;;29.20;99.90;;;;;;5058050;28;20207;-77
2021/07/19 09:01:58;;;;;;;12.60;11.63;;;29.30;99.90;;;;;;5055675;28;20187;-79
2021/07/19 09:04:25;;;;;;;12.50;11.60;;;29.20;99.90;;;;;;5047288;28;20254;-78
2021/07/19 09:06:52;;;;;;;12.07;11.27;;;29.40;99.90;;;;;;5048342;28;20183;-78
2021/07/19 09:09:27;;;;;;;12.17;11.37;;;29.30;99.90;;;;;;5045796;28;20212;-78
2021/07/19 09:11:56;;;;;;;13.10;12.10;;;29.40;99.90;;;;;;5051555;28;20195;-78
2021/07/19 09:14:24;;;;;;;12.03;11.23;;;29.60;99.90;;;;;;5050051;28;20246;-78
2021/07/19 09:16:52;;;;;;;12.77;11.80;;;29.90;99.90;;;;;;5040895;28;20219;-78
2021/07/19 09:19:20;;;;;;;12.67;11.67;;;29.90;99.90;;;;;;5037653;28;20246;-77
2021/07/19 09:21:49;;;;;;;12.50;11.60;;;29.60;99.90;;;;;;5047019;28;20199;-78
2021/07/19 09:24:20;;;;;;;11.93;11.13;;;29.50;99.90;;;;;;5046475;28;20188;-77
2021/07/19 09:26:48;;;;;;;11.83;11.10;;;29.50;99.90;;;;;;5046682;28;20256;-78
2021/07/19 09:29:19;;;;;;;12.10;11.30;;;29.50;99.90;;;;;;5045673;28;20208;-78
2021/07/19 09:31:51;;;;;;;11.80;11.00;;;29.70;99.90;;;;;;5029475;28;20649;-77
2021/07/19 09:34:20;;;;;;;11.83;11.03;;;29.30;99.90;;;;;;5027352;28;20216;-77
2021/07/19 09:36:58;;;;;;;12.10;11.00;;;29.60;99.90;;;;;;5041075;28;20212;-78
2021/07/19 09:39:26;;;;;;;9.33;8.73;;;29.40;99.90;;;;;;5048205;28;20565;-77
2021/07/19 09:42:08;;;;;;;8.87;8.27;;;29.30;99.90;;;;;;5040642;28;20713;-77
2021/07/19 09:44:36;;;;;;;9.57;8.87;;;29.70;99.90;;;;;;5055930;28;20196;-78
2021/07/19 09:47:05;;;;;;;9.30;8.70;;;29.80;99.90;;;;;;5050246;28;20195;-77
2021/07/19 09:49:33;;;;;;;9.50;8.80;;;30.00;99.90;;;;;;5046944;28;20708;-78
2021/07/19 09:52:01;;;;;;;9.37;8.70;;;30.20;99.90;;;;;;5052868;28;20195;-78
2021/07/19 09:54:40;;;;;;;9.87;9.17;;;30.30;99.90;;;;;;5046024;28;20210;-78
2021/07/19 09:57:07;;;;;;;9.80;9.10;;;30.30;99.90;;;;;;5017869;28;20215;-78
2021/07/19 09:59:38;;;;;;;9.70;8.90;;;30.40;99.90;;;;;;5017973;28;20243;-78
2021/07/19 10:02:08;;;;;;;10.10;9.40;;;30.00;99.90;;;;;;5021893;28;20183;-78
2021/07/19 10:04:43;;;;;;;10.17;9.47;;;30.00;99.90;;;;;;5049843;28;20196;-78
2021/07/19 10:07:10;;;;;;;11.70;10.90;;;29.60;99.90;;;;;;5046308;28;20199;-77
2021/07/19 10:09:39;;;;;;;11.97;11.10;;;29.80;99.90;;;;;;5028915;28;20288;-77
2021/07/19 10:12:16;;;;;;;11.67;10.77;;;29.80;99.90;;;;;;5047086;28;20215;-78
2021/07/19 10:14:47;;;;;;;11.97;11.07;;;30.10;99.90;;;;;;5047786;28;20226;-77
2021/07/19 10:17:14;;;;;;;12.10;11.20;;;29.80;99.90;;;;;;5044470;28;20211;-78
2021/07/19 10:19:41;;;;;;;11.63;10.83;;;29.40;99.90;;;;;;5047386;28;20191;-77
2021/07/19 10:22:10;;;;;;;11.83;10.83;;;29.10;99.90;;;;;;5044813;28;20191;-78
2021/07/19 10:24:39;;;;;;;11.37;10.60;;;28.80;99.90;;;;;;5042463;28;20200;-78
2021/07/19 10:27:05;;;;;;;11.80;10.93;;;29.20;99.90;;;;;;5046746;28;20182;-77
2021/07/19 10:29:32;;;;;;;11.17;10.37;;;29.30;99.90;;;;;;5027560;28;20258;-77
2021/07/19 10:32:01;;;;;;;10.70;10.00;;;29.10;99.90;;;;;;5044638;28;20246;-77
2021/07/19 10:34:28;;;;;;;12.03;11.13;;;28.60;99.90;;;;;;5051234;28;20266;-79
2021/07/19 10:37:00;;;;;;;11.93;11.07;;;28.60;99.90;;;;;;5055110;28;20211;-78
2021/07/19 10:39:32;;;;;;;11.30;10.50;;;29.00;99.90;;;;;;5035324;28;20715;-78
2021/07/19 10:42:04;;;;;;;11.10;10.30;;;29.20;99.90;;;;;;5043607;28;20222;-78
2021/07/19 10:44:36;;;;;;;11.73;10.83;;;29.20;99.90;;;;;;5045716;28;20234;-78
2021/07/19 10:47:16;;;;;;;11.50;10.70;;;29.00;99.90;;;;;;5047561;28;20180;-78
2021/07/19 10:49:55;;;;;;;11.20;10.30;;;29.10;99.90;;;;;;5066355;22;20223;-79
2021/07/19 10:52:30;;;;;;;12.10;10.87;;;29.20;99.90;;;;;;5029160;28;20192;-79
2021/07/19 10:54:57;;;;;;;9.83;9.00;;;29.10;99.90;;;;;;5045084;28;20270;-79
2021/07/19 10:57:35;;;;;;;10.07;9.00;;;28.50;99.90;;;;;;5042740;28;20219;-79
2021/07/19 11:00:04;;;;;;;9.47;8.87;;;28.10;99.90;;;;;;5040252;28;20215;-79
2021/07/19 11:02:33;;;;;;;10.50;9.70;;;28.20;99.90;;;;;;5045066;28;20195;-80
2021/07/19 11:04:59;;;;;;;10.00;9.10;;;28.20;99.90;;;;;;5040200;28;20191;-79
2021/07/19 11:07:27;;;;;;;9.93;9.23;;;28.40;99.90;;;;;;5039181;28;20195;-79
2021/07/19 11:09:54;;;;;;;9.53;8.83;;;28.40;99.90;;;;;;5043020;28;20258;-79
2021/07/19 11:12:21;;;;;;;10.20;9.40;;;28.70;99.90;;;;;;5024852;28;20206;-79
2021/07/19 11:14:50;;;;;;;9.77;9.07;;;28.70;99.90;;;;;;5044786;28;20188;-79
2021/07/19 11:17:18;;;;;;;10.17;9.47;;;28.60;99.90;;;;;;5025600;28;20289;-79
2021/07/19 11:19:48;;;;;;;10.90;10.10;;;28.80;99.90;;;;;;5045729;28;20261;-79
2021/07/19 11:22:23;;;;;;;10.90;9.97;;;28.90;99.90;;;;;;5041953;28;20199;-79
2021/07/19 11:24:52;;;;;;;10.70;10.00;;;28.60;99.90;;;;;;5039964;28;20648;-79
2021/07/19 11:27:30;;;;;;;10.90;10.00;;;28.50;99.90;;;;;;5040693;28;20202;-79
2021/07/19 11:30:02;;;;;;;11.63;10.63;;;28.30;99.90;;;;;;5016661;28;20219;-79
2021/07/19 11:32:32;;;;;;;11.20;10.30;;;27.90;99.90;;;;;;5042958;28;20187;-78
2021/07/19 11:35:09;;;;;;;10.70;9.90;;;28.00;99.90;;;;;;5017216;28;20211;-79
2021/07/19 11:37:38;;;;;;;10.47;9.77;;;28.20;99.90;;;;;;5024332;28;20214;-79
2021/07/19 11:40:07;;;;;;;10.73;9.80;;;28.20;99.90;;;;;;5020808;28;20248;-79
2021/07/19 11:42:36;;;;;;;10.30;9.60;;;28.10;99.90;;;;;;5026922;28;20559;-78
2021/07/19 11:45:09;;;;;;;10.90;10.03;;;27.80;99.90;;;;;;5020767;28;20692;-79
2021/07/19 11:47:42;;;;;;;11.13;10.33;;;27.80;99.90;;;;;;5041193;28;20183;-80
2021/07/19 11:50:12;;;;;;;11.27;10.47;;;27.80;99.90;;;;;;5044308;28;20192;-79
2021/07/19 11:52:41;;;;;;;11.93;11.03;;;27.70;99.90;;;;;;5028407;28;20195;-80
2021/07/19 11:55:10;;;;;;;11.70;10.80;;;27.40;99.90;;;;;;5044756;28;20188;-79
2021/07/19 11:57:44;;;;;;;10.73;9.90;;;27.10;99.90;;;;;;5046668;28;20231;-79
2021/07/19 12:00:13;;;;;;;11.33;10.30;;;26.80;99.90;;;;;;5046580;28;20199;-80
2021/07/19 12:02:41;;;;;;;11.00;10.10;;;26.90;99.90;;;;;;5047872;28;20206;-79
2021/07/19 12:05:15;;;;;;;11.60;10.80;;;26.90;99.90;;;;;;5041408;28;20195;-78
2021/07/19 12:07:42;;;;;;;11.00;10.10;;;27.00;99.90;;;;;;5039469;28;20644;-79
2021/07/19 12:10:10;;;;;;;11.00;10.20;;;26.90;99.90;;;;;;5030124;28;20195;-79
2021/07/19 12:12:37;;;;;;;10.23;9.53;;;26.90;99.90;;;;;;5043381;28;20237;-78
2021/07/19 12:15:06;;;;;;;10.80;10.10;;;27.00;99.90;;;;;;5043743;28;20192;-79
2021/07/19 12:17:35;;;;;;;10.87;10.07;;;27.30;99.90;;;;;;5026343;28;20207;-79
2021/07/19 12:20:03;;;;;;;10.90;10.10;;;27.30;99.90;;;;;;5044709;28;20291;-79
2021/07/19 12:22:32;;;;;;;4.67;4.27;;;27.30;99.90;;;;;;5027699;28;20245;-79
2021/07/19 12:24:59;;;;;;;5.50;4.50;;;27.10;99.90;;;;;;5032971;28;20186;-79
2021/07/19 12:27:26;;;;;;;10.23;9.53;;;26.80;99.90;;;;;;5039701;28;20196;-79
2021/07/19 12:29:53;;;;;;;10.57;9.80;;;26.60;99.90;;;;;;5025000;28;20215;-79
2021/07/19 12:32:20;;;;;;;11.03;9.93;;;26.60;99.90;;;;;;5024859;28;20190;-78
2021/07/19 12:34:47;;;;;;;4.83;4.33;;;26.70;99.90;;;;;;5044558;28;20192;-80
2021/07/19 12:37:15;;;;;;;4.57;4.17;;;26.70;99.90;;;;;;5024788;28;20223;-78
2021/07/19 12:39:48;;;;;;;4.53;4.00;;;26.70;99.90;;;;;;5027105;28;20223;-79
2021/07/19 12:42:16;;;;;;;5.00;4.17;;;26.90;99.90;;;;;;5041877;28;20240;-78
2021/07/19 12:44:46;;;;;;;5.30;4.43;;;27.00;99.90;;;;;;5044871;28;20198;-79